METAR Data
IDs: Format: Raw Decoded Include TAF

Data at: 0821 UTC 18 Sep 2021

LIVT 180755Z 06005KT CAVOK 20/13 Q1012 RMK SCT SCT070 QUK 1 QUL 1 NE VIS MAR 20 KM VIS MIN 9999